Terminal Aerodrome Forecast
Issued by NWS Grand Forks, ND

Home | Current Version | Previous Version | Graphics & Text | Print | Product List | Glossary On
Versions: 1 2 3 4 5 6 7 8 9 10 11 12 13 14 15 16 17 18 19
464
FTUS43 KFGF 232126 AAA
TAFGFK
TAF AMD
KGFK 232126Z 2321/2418 35012KT P6SM SCT025 BKN035
      TEMPO 2321/2323 BKN025
     FM232300 02009KT P6SM BKN045
     FM240200 02008KT P6SM VCSH OVC030
     FM240600 01010KT P6SM SHRA OVC015=

USA.gov is the U.S. government's official web portal to all federal, state and local government web resources and services.